createdAt,value
2023-02-09T00:01:57.341Z,100667.94
2023-02-09T00:04:43.774Z,100703.38
2023-02-09T00:07:30.407Z,100678.91
2023-02-09T00:10:17.259Z,100683.69
2023-02-09T00:13:22.025Z,100642.59
2023-02-09T00:16:08.333Z,100689.72
2023-02-09T00:18:57.122Z,100672.41
2023-02-09T00:21:44.293Z,100675.50
2023-02-09T00:24:30.633Z,100676.56
2023-02-09T00:27:16.912Z,100631.28
2023-02-09T00:30:03.640Z,100626.09
2023-02-09T00:32:50.234Z,100584.88
2023-02-09T00:35:40.586Z,100613.84
2023-02-09T00:38:26.798Z,100573.56
2023-02-09T00:41:13.866Z,100637.81
2023-02-09T00:44:00.515Z,100631.28
2023-02-09T00:46:48.917Z,100652.41
2023-02-09T00:49:35.461Z,100642.25
2023-02-09T00:52:22.089Z,100638.16
2023-02-09T00:55:08.670Z,100655.78
2023-02-09T00:57:55.330Z,100629.44
2023-02-09T01:00:42.439Z,100662.41
2023-02-09T01:03:28.880Z,100657.25
2023-02-09T01:06:15.532Z,100640.56
2023-02-09T01:09:02.260Z,100612.75
2023-02-09T01:11:48.655Z,100649.19
2023-02-09T01:14:34.986Z,100659.63
2023-02-09T01:17:21.280Z,100625.88
2023-02-09T01:20:10.141Z,100653.91
2023-02-09T01:22:56.478Z,100634.44
2023-02-09T01:25:42.604Z,100588.94
2023-02-09T01:28:30.227Z,100620.19
2023-02-09T01:31:31.880Z,100624.28
2023-02-09T01:34:18.629Z,100638.63
2023-02-09T01:37:08.541Z,100633.03
2023-02-09T01:39:55.017Z,100653.63
2023-02-09T01:42:41.404Z,100639.19
2023-02-09T01:45:45.412Z,100613.28
2023-02-09T01:48:31.748Z,100635.94
2023-02-09T01:51:19.076Z,100629.78
2023-02-09T01:54:14.660Z,100643.56
2023-02-09T01:57:07.011Z,100602.13
2023-02-09T01:59:58.655Z,100639.09
2023-02-09T02:02:55.594Z,100613.03
2023-02-09T02:05:46.144Z,100613.53
2023-02-09T02:08:36.425Z,100645.81
2023-02-09T02:11:24.131Z,100619.25
2023-02-09T02:14:29.754Z,100641.84
2023-02-09T02:17:42.449Z,100608.22
2023-02-09T02:21:00.112Z,100643.47
2023-02-09T02:24:15.770Z,100633.78
2023-02-09T02:27:05.135Z,100642.06
2023-02-09T02:30:05.995Z,100607.31
2023-02-09T02:33:07.201Z,100570.06
2023-02-09T02:36:00.204Z,100604.94
2023-02-09T02:39:00.417Z,100600.09
2023-02-09T02:42:14.720Z,100627.59
2023-02-09T02:45:13.583Z,100631.25
2023-02-09T02:48:15.289Z,100624.91
2023-02-09T02:51:07.800Z,100628.81
2023-02-09T02:53:57.870Z,100591.47
2023-02-09T02:56:49.916Z,100609.19
2023-02-09T02:59:46.193Z,100595.84
2023-02-09T03:02:38.545Z,100622.66
2023-02-09T03:05:27.391Z,100615.28
2023-02-09T03:08:14.234Z,100583.06
2023-02-09T03:11:00.299Z,100542.81
2023-02-09T03:13:52.880Z,100616.50
2023-02-09T03:16:58.229Z,100570.38
2023-02-09T03:20:10.721Z,100614.28
2023-02-09T03:23:12.824Z,100618.13
2023-02-09T03:26:06.219Z,100608.16
2023-02-09T03:28:56.385Z,100571.69
2023-02-09T03:31:43.605Z,100580.34
2023-02-09T03:34:30.150Z,100581.94
2023-02-09T03:37:17.605Z,100591.94
2023-02-09T03:40:04.354Z,100580.06
2023-02-09T03:42:50.937Z,100590.56
2023-02-09T03:45:37.801Z,100568.25
2023-02-09T03:48:24.432Z,100617.84
2023-02-09T03:51:10.874Z,100526.25
2023-02-09T03:53:58.003Z,100541.84
2023-02-09T03:56:44.405Z,100579.31
2023-02-09T03:59:30.773Z,100582.00
2023-02-09T04:02:17.005Z,100569.91
2023-02-09T04:05:05.720Z,100589.44
2023-02-09T04:07:52.483Z,100571.75
2023-02-09T04:10:38.988Z,100582.72
2023-02-09T04:13:26.114Z,100593.44
2023-02-09T04:16:12.607Z,100563.91
2023-02-09T04:18:59.012Z,100577.03
2023-02-09T04:21:45.475Z,100581.34
2023-02-09T04:24:31.942Z,100580.88
2023-02-09T04:27:18.118Z,100609.69
2023-02-09T04:30:04.614Z,100597.13
2023-02-09T04:32:51.931Z,100621.47
2023-02-09T04:35:38.211Z,100578.19
2023-02-09T04:38:25.869Z,100540.34
2023-02-09T04:41:12.464Z,100584.56
2023-02-09T04:43:58.690Z,100606.00
2023-02-09T04:46:45.801Z,100618.69
2023-02-09T04:49:32.461Z,100610.06
2023-02-09T04:52:19.019Z,100580.69
2023-02-09T04:55:05.782Z,100593.97
2023-02-09T04:58:10.809Z,100570.47
2023-02-09T05:00:57.834Z,100577.25
2023-02-09T05:03:44.203Z,100584.78
2023-02-09T05:06:30.665Z,100617.28
2023-02-09T05:09:17.009Z,100567.94
2023-02-09T05:12:03.413Z,100612.13
2023-02-09T05:14:49.781Z,100538.31
2023-02-09T05:17:36.185Z,100562.66
2023-02-09T05:20:22.818Z,100585.88
2023-02-09T05:23:09.800Z,100607.16
2023-02-09T05:25:56.558Z,100602.09
2023-02-09T05:28:43.074Z,100606.72
2023-02-09T05:31:29.941Z,100615.25
2023-02-09T05:34:16.512Z,100591.38
2023-02-09T05:37:03.373Z,100525.47
2023-02-09T05:39:51.335Z,100621.50
2023-02-09T05:42:37.569Z,100565.53
2023-02-09T05:45:23.931Z,100569.13
2023-02-09T05:48:10.214Z,100600.44
2023-02-09T05:50:56.360Z,100624.53
2023-02-09T05:53:43.020Z,100626.88
2023-02-09T05:56:30.056Z,100585.38
2023-02-09T05:59:16.193Z,100572.66
2023-02-09T06:02:02.793Z,100634.09
2023-02-09T06:04:49.268Z,100593.78
2023-02-09T06:07:35.970Z,100611.69
2023-02-09T06:10:22.523Z,100574.28
2023-02-09T06:13:08.836Z,100629.41
2023-02-09T06:15:55.108Z,100615.53
2023-02-09T06:18:41.769Z,100642.28
2023-02-09T06:21:28.300Z,100603.84
2023-02-09T06:24:15.521Z,100630.59
2023-02-09T06:27:02.131Z,100611.09
2023-02-09T06:29:48.377Z,100644.31
2023-02-09T06:32:34.733Z,100622.94
2023-02-09T06:35:21.019Z,100665.16
2023-02-09T06:38:07.377Z,100656.16
2023-02-09T06:40:53.691Z,100639.00
2023-02-09T06:43:39.992Z,100647.44
2023-02-09T06:46:26.205Z,100597.50
2023-02-09T06:49:13.014Z,100668.81
2023-02-09T06:51:59.867Z,100637.22
2023-02-09T06:54:46.565Z,100661.91
2023-02-09T06:57:33.069Z,100620.22
2023-02-09T07:00:19.585Z,100661.00
2023-02-09T07:03:06.233Z,100635.31
2023-02-09T07:05:52.729Z,100617.88
2023-02-09T07:08:40.737Z,100680.84
2023-02-09T07:11:27.255Z,100666.91
2023-02-09T07:14:13.416Z,100638.84
2023-02-09T07:17:00.006Z,100629.97
2023-02-09T07:19:46.429Z,100681.97
2023-02-09T07:22:33.589Z,100686.41
2023-02-09T07:25:19.970Z,100664.50
2023-02-09T07:28:06.470Z,100633.66
2023-02-09T07:30:53.096Z,100651.31
2023-02-09T07:33:39.777Z,100666.56
2023-02-09T07:36:26.222Z,100660.34
2023-02-09T07:39:12.537Z,100679.16
2023-02-09T07:41:59.241Z,100633.38
2023-02-09T07:45:00.028Z,100688.44
2023-02-09T07:47:46.625Z,100688.53
2023-02-09T07:50:33.151Z,100678.09
2023-02-09T07:53:19.921Z,100661.13
2023-02-09T07:56:06.426Z,100667.56
2023-02-09T07:58:54.201Z,100703.63
2023-02-09T08:01:40.403Z,100651.13
2023-02-09T08:04:26.995Z,100679.41
2023-02-09T08:07:13.666Z,100695.84
2023-02-09T08:10:00.230Z,100665.22
2023-02-09T08:13:03.491Z,100696.25
2023-02-09T08:15:55.937Z,100698.97
2023-02-09T08:18:50.760Z,100719.50
2023-02-09T08:21:39.567Z,100712.94
2023-02-09T08:24:25.726Z,100708.91
2023-02-09T08:27:12.299Z,100707.91
2023-02-09T08:29:59.521Z,100661.22
2023-02-09T08:32:45.773Z,100679.91
2023-02-09T08:35:32.270Z,100708.69
2023-02-09T08:38:19.824Z,100680.34
2023-02-09T08:41:08.275Z,100710.06
2023-02-09T08:43:54.548Z,100701.84
2023-02-09T08:46:41.386Z,100696.56
2023-02-09T08:49:28.123Z,100685.19
2023-02-09T08:52:15.596Z,100703.28
2023-02-09T08:55:01.984Z,100669.06
2023-02-09T08:57:48.275Z,100685.00
2023-02-09T09:00:34.872Z,100598.31
2023-02-09T09:03:21.157Z,100700.03
2023-02-09T09:06:10.476Z,100698.38
2023-02-09T09:08:56.755Z,100686.75
2023-02-09T09:11:43.148Z,100705.03
2023-02-09T09:14:30.053Z,100692.09
2023-02-09T09:17:17.004Z,100699.16
2023-02-09T09:20:04.330Z,100698.63
2023-02-09T09:22:50.596Z,100710.19
2023-02-09T09:25:39.202Z,100678.34
2023-02-09T09:28:25.495Z,100707.88
2023-02-09T09:31:16.468Z,100708.47
2023-02-09T09:34:03.192Z,100675.59
2023-02-09T09:36:49.813Z,100705.06
2023-02-09T09:39:36.052Z,100715.84
2023-02-09T09:42:44.753Z,100723.66
2023-02-09T09:45:35.072Z,100722.28
2023-02-09T09:48:26.939Z,100723.88
2023-02-09T09:51:20.340Z,100715.34
2023-02-09T09:54:20.266Z,100704.78
2023-02-09T09:57:28.691Z,100725.34
2023-02-09T10:00:33.624Z,100734.84
2023-02-09T10:03:23.178Z,100711.44
2023-02-09T10:06:21.737Z,100717.41
2023-02-09T10:09:21.933Z,100737.06
2023-02-09T10:12:15.768Z,100707.66
2023-02-09T10:15:31.904Z,100729.31
2023-02-09T10:18:25.185Z,100729.53
2023-02-09T10:21:14.427Z,100726.53
2023-02-09T10:24:00.546Z,100733.09
2023-02-09T10:27:07.607Z,100735.38
2023-02-09T10:29:54.775Z,100731.91
2023-02-09T10:32:43.876Z,100730.25
2023-02-09T10:35:43.333Z,100715.31
2023-02-09T10:38:33.492Z,100725.38
2023-02-09T10:41:22.321Z,100716.50
2023-02-09T10:44:22.272Z,100717.88
2023-02-09T10:47:27.265Z,100715.47
2023-02-09T10:50:17.970Z,100723.13
2023-02-09T10:53:21.648Z,100722.44
2023-02-09T10:56:18.776Z,100694.44
2023-02-09T10:59:17.919Z,100712.38
2023-02-09T11:02:04.011Z,100701.69
2023-02-09T11:04:50.583Z,100664.06
2023-02-09T11:07:41.752Z,100671.81
2023-02-09T11:10:29.975Z,100701.09
2023-02-09T11:13:23.667Z,100690.50
2023-02-09T11:16:25.840Z,100688.16
2023-02-09T11:19:27.301Z,100664.41
2023-02-09T11:22:16.860Z,100692.09
2023-02-09T11:25:21.771Z,100681.09
2023-02-09T11:28:40.105Z,100676.03
2023-02-09T11:32:04.636Z,100670.66
2023-02-09T11:35:03.194Z,100628.59
2023-02-09T11:38:14.281Z,100664.13
2023-02-09T11:41:24.351Z,100623.78
2023-02-09T11:44:19.227Z,100636.47
2023-02-09T11:47:10.824Z,100648.91
2023-02-09T11:50:01.864Z,100647.03
2023-02-09T11:52:53.936Z,100630.19
2023-02-09T11:55:48.806Z,100609.09
2023-02-09T11:58:46.897Z,100637.19
2023-02-09T12:01:57.059Z,100606.44
2023-02-09T12:05:00.519Z,100633.84
2023-02-09T12:08:22.194Z,100624.44
2023-02-09T12:11:14.246Z,100627.09
2023-02-09T12:14:15.810Z,100634.19
2023-02-09T12:17:19.067Z,100601.44
2023-02-09T12:20:19.912Z,100627.41
2023-02-09T12:23:24.538Z,100626.25
2023-02-09T12:26:17.094Z,100625.69
2023-02-09T12:29:38.114Z,100620.75
2023-02-09T12:32:41.080Z,100629.53
2023-02-09T12:35:38.476Z,100600.09
2023-02-09T12:38:25.394Z,100611.41
2023-02-09T12:41:15.239Z,100587.53
2023-02-09T12:44:09.125Z,100614.00
2023-02-09T12:46:57.858Z,100617.03
2023-02-09T12:49:45.012Z,100615.13
2023-02-09T12:52:31.388Z,100603.75
2023-02-09T12:55:22.889Z,100578.00
2023-02-09T12:58:51.216Z,100605.28
2023-02-09T13:02:08.228Z,100607.19
2023-02-09T13:05:22.863Z,100609.75
2023-02-09T13:08:13.242Z,100617.19
2023-02-09T13:11:20.174Z,100608.63
2023-02-09T13:14:09.588Z,100582.69
2023-02-09T13:16:59.019Z,100617.03
2023-02-09T13:20:07.351Z,100612.22
2023-02-09T13:23:40.035Z,100605.50
2023-02-09T13:26:30.606Z,100607.91
2023-02-09T13:29:22.105Z,100616.97
2023-02-09T13:32:26.020Z,100608.50
2023-02-09T13:35:23.421Z,100583.38
2023-02-09T13:38:19.082Z,100596.75
2023-02-09T13:41:07.500Z,100575.50
2023-02-09T13:43:54.074Z,100596.09
2023-02-09T13:46:40.335Z,100598.84
2023-02-09T13:49:29.412Z,100604.06
2023-02-09T13:52:20.958Z,100607.00
2023-02-09T13:55:26.399Z,100592.41
2023-02-09T13:58:30.226Z,100602.28
2023-02-09T14:01:25.369Z,100599.47
2023-02-09T14:04:14.490Z,100603.75
2023-02-09T14:07:08.869Z,100606.50
2023-02-09T14:10:06.688Z,100603.72
2023-02-09T14:12:59.957Z,100603.59
2023-02-09T14:16:08.405Z,100610.47
2023-02-09T14:18:59.806Z,100617.91
2023-02-09T14:21:46.617Z,100613.28
2023-02-09T14:24:44.089Z,100618.97
2023-02-09T14:27:39.150Z,100619.16
2023-02-09T14:30:32.621Z,100622.47
2023-02-09T14:33:28.673Z,100609.81
2023-02-09T14:36:51.413Z,100626.00
2023-02-09T14:40:01.291Z,100630.56
2023-02-09T14:43:01.828Z,100634.94
2023-02-09T14:45:57.443Z,100633.78
2023-02-09T14:48:43.708Z,100620.19
2023-02-09T14:51:30.245Z,100604.59
2023-02-09T14:54:28.046Z,100564.06
2023-02-09T14:57:14.877Z,100607.41
2023-02-09T15:00:01.496Z,100637.34
2023-02-09T15:02:50.109Z,100633.78
2023-02-09T15:05:36.476Z,100619.13
2023-02-09T15:08:26.782Z,100608.56
2023-02-09T15:11:42.705Z,100637.97
2023-02-09T15:14:29.131Z,100642.16
2023-02-09T15:17:21.726Z,100634.22
2023-02-09T15:20:08.615Z,100589.69
2023-02-09T15:22:55.618Z,100626.50
2023-02-09T15:25:42.272Z,100641.97
2023-02-09T15:28:29.974Z,100648.69
2023-02-09T15:31:16.710Z,100642.78
2023-02-09T15:34:04.555Z,100636.94
2023-02-09T15:36:50.912Z,100620.63
2023-02-09T15:39:37.224Z,100601.13
2023-02-09T15:42:42.272Z,100629.34
2023-02-09T15:45:48.034Z,100603.41
2023-02-09T15:48:34.136Z,100641.16
2023-02-09T15:51:22.673Z,100643.13
2023-02-09T15:54:17.876Z,100606.31
2023-02-09T15:57:04.117Z,100645.63
2023-02-09T15:59:51.640Z,100600.66
2023-02-09T16:02:37.975Z,100629.19
2023-02-09T16:05:27.149Z,100642.31
2023-02-09T16:08:21.292Z,100642.47
2023-02-09T16:11:16.470Z,100655.16
2023-02-09T16:14:02.839Z,100679.13
2023-02-09T16:16:49.677Z,100676.94
2023-02-09T16:19:36.253Z,100662.28
2023-02-09T16:22:25.065Z,100648.34
2023-02-09T16:25:21.616Z,100688.91
2023-02-09T16:28:12.284Z,100681.16
2023-02-09T16:30:58.601Z,100673.41
2023-02-09T16:33:45.057Z,100694.38
2023-02-09T16:36:32.012Z,100696.75
2023-02-09T16:39:20.688Z,100711.31
2023-02-09T16:42:14.927Z,100707.84
2023-02-09T16:45:01.899Z,100652.63
2023-02-09T16:47:51.449Z,100712.44
2023-02-09T16:50:42.046Z,100716.91
2023-02-09T16:53:32.693Z,100646.13
2023-02-09T16:56:20.188Z,100683.81
2023-02-09T16:59:06.402Z,100718.50
2023-02-09T17:01:52.894Z,100679.44
2023-02-09T17:04:40.196Z,100733.41
2023-02-09T17:07:45.452Z,100737.94
2023-02-09T17:10:39.783Z,100713.75
2023-02-09T17:13:26.220Z,100731.84
2023-02-09T17:16:33.471Z,100722.09
2023-02-09T17:19:20.467Z,100736.91
2023-02-09T17:22:11.588Z,100718.00
2023-02-09T17:24:58.069Z,100721.66
2023-02-09T17:27:45.199Z,100690.94
2023-02-09T17:30:33.568Z,100708.31
2023-02-09T17:33:25.793Z,100736.47
2023-02-09T17:36:29.084Z,100734.06
2023-02-09T17:39:18.647Z,100745.25
2023-02-09T17:42:05.108Z,100744.56
2023-02-09T17:44:51.414Z,100739.50
2023-02-09T17:47:39.409Z,100735.72
2023-02-09T17:50:26.136Z,100741.31
2023-02-09T17:53:16.234Z,100745.91
2023-02-09T17:56:02.770Z,100707.31
2023-02-09T17:58:49.038Z,100731.88
2023-02-09T18:01:40.018Z,100731.81
2023-02-09T18:04:28.538Z,100762.94
2023-02-09T18:07:20.252Z,100748.97
2023-02-09T18:10:07.350Z,100750.91
2023-02-09T18:12:56.424Z,100767.88
2023-02-09T18:15:44.662Z,100780.78
2023-02-09T18:18:31.048Z,100752.22
2023-02-09T18:21:17.460Z,100751.53
2023-02-09T18:24:04.157Z,100768.72
2023-02-09T18:26:51.029Z,100763.19
2023-02-09T18:29:37.633Z,100786.59
2023-02-09T18:32:24.076Z,100769.53
2023-02-09T18:35:23.121Z,100794.22
2023-02-09T18:38:11.947Z,100796.38
2023-02-09T18:40:58.370Z,100782.97
2023-02-09T18:43:44.690Z,100813.34
2023-02-09T18:46:31.070Z,100778.69
2023-02-09T18:49:17.533Z,100764.25
2023-02-09T18:52:04.984Z,100769.84
2023-02-09T18:54:51.897Z,100753.16
2023-02-09T18:57:38.211Z,100786.03
2023-02-09T19:00:25.530Z,100821.19
2023-02-09T19:03:13.688Z,100813.59
2023-02-09T19:05:59.966Z,100757.84
2023-02-09T19:08:46.640Z,100824.38
2023-02-09T19:11:33.096Z,100802.59
2023-02-09T19:14:37.652Z,100716.81
2023-02-09T19:17:23.644Z,100797.50
2023-02-09T19:20:16.986Z,100823.59
2023-02-09T19:23:03.892Z,100808.41
2023-02-09T19:26:00.754Z,100844.34
2023-02-09T19:28:48.157Z,100808.63
2023-02-09T19:31:34.437Z,100819.13
2023-02-09T19:34:20.700Z,100836.19
2023-02-09T19:37:08.020Z,100821.13
2023-02-09T19:40:00.452Z,100843.91
2023-02-09T19:42:48.336Z,100822.25
2023-02-09T19:45:37.803Z,100786.66
2023-02-09T19:48:24.327Z,100829.97
2023-02-09T19:51:10.600Z,100816.81
2023-02-09T19:53:56.954Z,100818.28
2023-02-09T19:56:45.159Z,100809.69
2023-02-09T19:59:32.407Z,100828.63
2023-02-09T20:02:18.670Z,100839.31
2023-02-09T20:05:05.300Z,100849.47
2023-02-09T20:07:53.652Z,100858.28
2023-02-09T20:10:40.575Z,100835.31
2023-02-09T20:13:27.282Z,100871.75
2023-02-09T20:16:18.487Z,100867.09
2023-02-09T20:19:04.913Z,100874.38
2023-02-09T20:21:51.404Z,100861.63
2023-02-09T20:24:37.705Z,100857.28
2023-02-09T20:27:23.988Z,100866.09
2023-02-09T20:30:10.840Z,100846.03
2023-02-09T20:32:57.054Z,100847.66
2023-02-09T20:35:45.433Z,100866.56
2023-02-09T20:38:32.824Z,100877.84
2023-02-09T20:41:19.031Z,100842.84
2023-02-09T20:44:23.855Z,100793.22
2023-02-09T20:47:10.247Z,100872.00
2023-02-09T20:49:59.610Z,100815.53
2023-02-09T20:52:46.493Z,100875.91
2023-02-09T20:55:32.748Z,100874.03
2023-02-09T20:58:19.296Z,100878.56
2023-02-09T21:01:06.115Z,100871.56
2023-02-09T21:03:57.317Z,100892.97
2023-02-09T21:06:44.477Z,100885.81
2023-02-09T21:09:30.637Z,100904.03
2023-02-09T21:12:17.033Z,100863.34
2023-02-09T21:15:03.645Z,100866.09
2023-02-09T21:17:51.658Z,100898.66
2023-02-09T21:20:38.515Z,100912.97
2023-02-09T21:23:24.733Z,100864.78
2023-02-09T21:26:14.602Z,100872.78
2023-02-09T21:29:01.029Z,100907.31
2023-02-09T21:31:47.645Z,100883.34
2023-02-09T21:34:34.198Z,100850.25
2023-02-09T21:37:22.837Z,100895.97
2023-02-09T21:40:11.280Z,100932.44
2023-02-09T21:42:57.580Z,100871.88
2023-02-09T21:45:44.128Z,100915.84
2023-02-09T21:48:30.374Z,100911.81
2023-02-09T21:51:16.954Z,100917.13
2023-02-09T21:54:03.367Z,100941.50
2023-02-09T21:56:49.736Z,100937.97
2023-02-09T21:59:36.225Z,100943.44
2023-02-09T22:02:22.721Z,100946.16
2023-02-09T22:05:09.772Z,100918.28
2023-02-09T22:07:56.124Z,100933.44
2023-02-09T22:10:42.507Z,100948.97
2023-02-09T22:13:30.551Z,100931.06
2023-02-09T22:16:19.780Z,100949.16
2023-02-09T22:19:06.394Z,100936.25
2023-02-09T22:21:52.736Z,100945.78
2023-02-09T22:24:39.221Z,100941.78
2023-02-09T22:27:26.454Z,100966.88
2023-02-09T22:30:12.951Z,100957.22
2023-02-09T22:32:59.345Z,100977.03
2023-02-09T22:35:45.817Z,100939.63
2023-02-09T22:38:33.141Z,100952.06
2023-02-09T22:41:22.086Z,100968.06
2023-02-09T22:44:11.766Z,100940.63
2023-02-09T22:46:58.326Z,100973.19
2023-02-09T22:49:46.666Z,100982.47
2023-02-09T22:52:33.319Z,100981.59
2023-02-09T22:55:19.690Z,100965.53
2023-02-09T22:58:06.030Z,100957.97
2023-02-09T23:00:54.890Z,100979.47
2023-02-09T23:03:41.324Z,100960.53
2023-02-09T23:06:29.968Z,100981.88
2023-02-09T23:09:16.756Z,100990.66
2023-02-09T23:12:03.475Z,100977.16
2023-02-09T23:14:49.703Z,100979.19
2023-02-09T23:17:36.154Z,100937.22
2023-02-09T23:20:22.342Z,100989.06
2023-02-09T23:23:11.292Z,100963.59
2023-02-09T23:25:58.032Z,100992.03
2023-02-09T23:28:45.194Z,100951.75
2023-02-09T23:31:31.977Z,100995.03
2023-02-09T23:34:21.627Z,100988.22
2023-02-09T23:37:18.145Z,100962.22
2023-02-09T23:40:10.524Z,100992.09
2023-02-09T23:42:56.859Z,100983.22
2023-02-09T23:45:43.206Z,100980.53
2023-02-09T23:48:29.856Z,100983.47
2023-02-09T23:51:22.118Z,100989.06
2023-02-09T23:54:10.315Z,100990.75
2023-02-09T23:56:56.934Z,100983.53
2023-02-09T23:59:43.427Z,100961.81
